Airfield :
LOGIN :

Register | Disclaimer

   EN    FR    IT 

 










Legend :    VFR   Marginal VFR   IFR   Intensive IFR   Very Intensive IFR
Visi :
Ceiling :
>= 8 km
>= 3000ft
5 to 8 km
1000 to 3000 ft
1500m to 5 km
500 to 1000 ft
800 to 1500m
200 to 500 ft
< 800m
< 200 ft
Symbols :   Thunderstorms  Fog  Heavy snow  Heavy precipitations  Wind > 20 kt
SIGMETs :     Misc.  Thunderstorms  Icing  Turbulence  Mountain Waves  Volcanic Ashes






- Airport Elevation : 423 ft
- IATA code : PIS


LFBI - Poitiers

CURRENT METAR :
  • 291030Z AUTO 23008KT 9999 SCT010 OVC043 10/08 Q1019 NOSIG

EXPIRED METARs :
  • 291000Z AUTO 23009KT 9999 FEW009 BKN047 09/08 Q1019 NOSIG
  • 290930Z AUTO 24009KT 9999 BKN046 BKN056 09/08 Q1018 NOSIG
  • 290900Z AUTO 24009KT 9999 OVC046/// 08/08 Q1018 TEMPO BKN006
  • 290830Z AUTO 25007KT 9999 -RA BKN049 08/07 Q1018 TEMPO BKN006
  • 290800Z AUTO 25009KT 9999 FEW008 SCT031 BKN044 08/08 Q1017 TEMPO BKN006

TAF TAF LFBI
Valid from the 29 at 06:00 until the 30 at 06:00 UTC


290500Z 2906/3006 23010KT 9999 BKN030
PROB30
TEMPO 2908/2910 BKN006
TEMPO 2922/3002 -RA BKN010
PROB40 3002/3006 19015G25KT 3000 RA OVC005



MET'MAP, your aeronautical weather chart ! - Copyright ORBIFLY December 2007 - Disclaimer

ORBIFLY MET'MAP TEAM :

Programming & Development : Alexandra Zaïnal
Concept & original design : Baudouin d'Aumeries
Assistance for programming : Marc-Olivier Méhu
Technical & hardware support : Manuel Goepfert

Contact : metmap@orbifly.com




SOURCES & CREDITS :

   NOAA